sensor_id;sensor_type;location;lat;lon;timestamp;P1;durP1;ratioP1;P2;durP2;ratioP2
78561;SDS011;68963;52.138;5.446;2024-03-08T00:00:11;33.25;;;11.77;;
78561;SDS011;68963;52.138;5.446;2024-03-08T00:02:41;32.25;;;10.68;;
78561;SDS011;68963;52.138;5.446;2024-03-08T00:05:09;31.13;;;11.10;;
78561;SDS011;68963;52.138;5.446;2024-03-08T00:07:37;31.73;;;10.70;;
78561;SDS011;68963;52.138;5.446;2024-03-08T00:10:05;30.70;;;11.73;;
78561;SDS011;68963;52.138;5.446;2024-03-08T00:12:42;31.95;;;11.45;;
78561;SDS011;68963;52.138;5.446;2024-03-08T00:15:12;29.52;;;10.93;;
78561;SDS011;68963;52.138;5.446;2024-03-08T00:17:43;33.65;;;11.55;;
78561;SDS011;68963;52.138;5.446;2024-03-08T00:20:11;33.92;;;11.00;;
78561;SDS011;68963;52.138;5.446;2024-03-08T00:22:41;30.10;;;10.60;;
78561;SDS011;68963;52.138;5.446;2024-03-08T00:25:08;30.23;;;10.88;;
78561;SDS011;68963;52.138;5.446;2024-03-08T00:27:41;31.65;;;11.65;;
78561;SDS011;68963;52.138;5.446;2024-03-08T00:30:08;30.92;;;11.48;;
78561;SDS011;68963;52.138;5.446;2024-03-08T00:32:35;31.38;;;11.18;;
78561;SDS011;68963;52.138;5.446;2024-03-08T00:35:03;28.88;;;11.27;;
78561;SDS011;68963;52.138;5.446;2024-03-08T00:37:34;32.58;;;11.75;;
78561;SDS011;68963;52.138;5.446;2024-03-08T00:40:09;32.88;;;11.20;;
78561;SDS011;68963;52.138;5.446;2024-03-08T00:42:37;34.55;;;11.13;;
78561;SDS011;68963;52.138;5.446;2024-03-08T00:45:57;26.90;;;9.93;;
78561;SDS011;68963;52.138;5.446;2024-03-08T00:48:27;32.13;;;10.65;;
78561;SDS011;68963;52.138;5.446;2024-03-08T00:50:57;30.50;;;10.93;;
78561;SDS011;68963;52.138;5.446;2024-03-08T00:53:28;30.25;;;10.98;;
78561;SDS011;68963;52.138;5.446;2024-03-08T00:55:55;29.80;;;10.27;;
78561;SDS011;68963;52.138;5.446;2024-03-08T00:58:31;32.38;;;11.13;;
78561;SDS011;68963;52.138;5.446;2024-03-08T01:01:04;33.88;;;11.35;;
78561;SDS011;68963;52.138;5.446;2024-03-08T01:06:52;29.15;;;9.88;;
78561;SDS011;68963;52.138;5.446;2024-03-08T01:09:19;28.30;;;10.38;;
78561;SDS011;68963;52.138;5.446;2024-03-08T01:11:48;34.92;;;11.70;;
78561;SDS011;68963;52.138;5.446;2024-03-08T01:14:19;28.92;;;10.30;;
78561;SDS011;68963;52.138;5.446;2024-03-08T01:16:49;29.73;;;11.15;;
78561;SDS011;68963;52.138;5.446;2024-03-08T01:19:16;31.88;;;11.32;;
78561;SDS011;68963;52.138;5.446;2024-03-08T01:21:44;37.33;;;12.18;;
78561;SDS011;68963;52.138;5.446;2024-03-08T01:24:11;32.72;;;10.63;;
78561;SDS011;68963;52.138;5.446;2024-03-08T01:26:50;35.03;;;10.98;;
78561;SDS011;68963;52.138;5.446;2024-03-08T01:29:20;34.28;;;11.68;;
78561;SDS011;68963;52.138;5.446;2024-03-08T01:31:47;28.98;;;11.10;;
78561;SDS011;68963;52.138;5.446;2024-03-08T01:34:27;33.60;;;10.73;;
78561;SDS011;68963;52.138;5.446;2024-03-08T01:36:58;32.75;;;11.48;;
78561;SDS011;68963;52.138;5.446;2024-03-08T01:39:26;31.77;;;11.20;;
78561;SDS011;68963;52.138;5.446;2024-03-08T01:41:55;31.52;;;11.73;;
78561;SDS011;68963;52.138;5.446;2024-03-08T01:44:28;30.10;;;11.32;;
78561;SDS011;68963;52.138;5.446;2024-03-08T01:46:54;31.08;;;11.98;;
78561;SDS011;68963;52.138;5.446;2024-03-08T01:49:25;28.60;;;11.63;;
78561;SDS011;68963;52.138;5.446;2024-03-08T01:51:53;30.20;;;11.90;;
78561;SDS011;68963;52.138;5.446;2024-03-08T01:54:23;35.70;;;11.07;;
78561;SDS011;68963;52.138;5.446;2024-03-08T01:56:51;34.42;;;11.85;;
78561;SDS011;68963;52.138;5.446;2024-03-08T01:59:23;27.23;;;10.52;;
78561;SDS011;68963;52.138;5.446;2024-03-08T02:01:56;31.33;;;11.13;;
78561;SDS011;68963;52.138;5.446;2024-03-08T02:04:29;32.88;;;11.90;;
78561;SDS011;68963;52.138;5.446;2024-03-08T02:06:57;29.98;;;11.63;;
78561;SDS011;68963;52.138;5.446;2024-03-08T02:09:36;31.75;;;10.68;;
78561;SDS011;68963;52.138;5.446;2024-03-08T02:12:03;30.15;;;11.93;;
78561;SDS011;68963;52.138;5.446;2024-03-08T02:14:30;31.65;;;12.52;;
78561;SDS011;68963;52.138;5.446;2024-03-08T02:17:03;32.25;;;12.05;;
78561;SDS011;68963;52.138;5.446;2024-03-08T02:19:31;31.17;;;10.98;;
78561;SDS011;68963;52.138;5.446;2024-03-08T02:21:59;32.72;;;11.63;;
78561;SDS011;68963;52.138;5.446;2024-03-08T02:24:33;29.05;;;11.18;;
78561;SDS011;68963;52.138;5.446;2024-03-08T02:27:12;34.85;;;11.63;;
78561;SDS011;68963;52.138;5.446;2024-03-08T02:29:40;33.85;;;12.07;;
78561;SDS011;68963;52.138;5.446;2024-03-08T02:32:09;29.70;;;10.90;;
78561;SDS011;68963;52.138;5.446;2024-03-08T02:34:45;29.70;;;10.80;;
78561;SDS011;68963;52.138;5.446;2024-03-08T02:37:19;31.25;;;11.30;;
78561;SDS011;68963;52.138;5.446;2024-03-08T02:39:46;32.78;;;10.98;;
78561;SDS011;68963;52.138;5.446;2024-03-08T02:42:16;33.67;;;11.48;;
78561;SDS011;68963;52.138;5.446;2024-03-08T02:44:50;34.42;;;11.43;;
78561;SDS011;68963;52.138;5.446;2024-03-08T02:47:28;31.80;;;11.27;;
78561;SDS011;68963;52.138;5.446;2024-03-08T02:50:05;28.55;;;10.27;;
78561;SDS011;68963;52.138;5.446;2024-03-08T02:52:47;29.92;;;10.50;;
78561;SDS011;68963;52.138;5.446;2024-03-08T02:55:16;31.73;;;11.23;;
78561;SDS011;68963;52.138;5.446;2024-03-08T02:57:43;32.05;;;12.07;;
78561;SDS011;68963;52.138;5.446;2024-03-08T03:00:13;33.50;;;12.27;;
78561;SDS011;68963;52.138;5.446;2024-03-08T03:03:28;30.63;;;10.98;;
78561;SDS011;68963;52.138;5.446;2024-03-08T03:05:55;30.58;;;11.27;;
78561;SDS011;68963;52.138;5.446;2024-03-08T03:08:28;30.35;;;11.02;;
78561;SDS011;68963;52.138;5.446;2024-03-08T03:13:43;32.83;;;11.43;;
78561;SDS011;68963;52.138;5.446;2024-03-08T03:16:31;37.08;;;11.75;;
78561;SDS011;68963;52.138;5.446;2024-03-08T03:18:58;30.23;;;10.48;;
78561;SDS011;68963;52.138;5.446;2024-03-08T03:21:28;27.98;;;11.15;;
78561;SDS011;68963;52.138;5.446;2024-03-08T03:24:29;28.30;;;10.55;;
78561;SDS011;68963;52.138;5.446;2024-03-08T03:27:00;31.08;;;10.77;;
78561;SDS011;68963;52.138;5.446;2024-03-08T03:29:28;31.98;;;10.93;;
78561;SDS011;68963;52.138;5.446;2024-03-08T03:32:28;27.08;;;10.32;;
78561;SDS011;68963;52.138;5.446;2024-03-08T03:35:04;31.80;;;11.23;;
78561;SDS011;68963;52.138;5.446;2024-03-08T03:37:41;28.90;;;11.23;;
78561;SDS011;68963;52.138;5.446;2024-03-08T03:40:41;28.80;;;10.70;;
78561;SDS011;68963;52.138;5.446;2024-03-08T03:43:19;30.75;;;11.82;;
78561;SDS011;68963;52.138;5.446;2024-03-08T03:45:49;33.17;;;12.07;;
78561;SDS011;68963;52.138;5.446;2024-03-08T03:48:19;29.48;;;10.15;;
78561;SDS011;68963;52.138;5.446;2024-03-08T03:53:52;28.92;;;11.48;;
78561;SDS011;68963;52.138;5.446;2024-03-08T03:59:02;30.00;;;11.65;;
78561;SDS011;68963;52.138;5.446;2024-03-08T04:01:30;34.28;;;12.05;;
78561;SDS011;68963;52.138;5.446;2024-03-08T04:04:05;30.73;;;11.80;;
78561;SDS011;68963;52.138;5.446;2024-03-08T04:06:32;31.27;;;11.15;;
78561;SDS011;68963;52.138;5.446;2024-03-08T04:09:00;34.42;;;11.80;;
78561;SDS011;68963;52.138;5.446;2024-03-08T04:11:48;37.25;;;13.13;;
78561;SDS011;68963;52.138;5.446;2024-03-08T04:14:15;33.10;;;11.75;;
78561;SDS011;68963;52.138;5.446;2024-03-08T04:16:42;31.52;;;11.98;;
78561;SDS011;68963;52.138;5.446;2024-03-08T04:19:09;31.80;;;11.73;;
78561;SDS011;68963;52.138;5.446;2024-03-08T04:21:36;30.67;;;11.05;;
78561;SDS011;68963;52.138;5.446;2024-03-08T04:24:03;33.10;;;11.07;;
78561;SDS011;68963;52.138;5.446;2024-03-08T04:26:32;29.98;;;11.10;;
78561;SDS011;68963;52.138;5.446;2024-03-08T04:29:00;31.20;;;11.95;;
78561;SDS011;68963;52.138;5.446;2024-03-08T04:31:31;28.10;;;11.38;;
78561;SDS011;68963;52.138;5.446;2024-03-08T04:33:58;33.92;;;12.95;;
78561;SDS011;68963;52.138;5.446;2024-03-08T04:36:25;29.70;;;11.18;;
78561;SDS011;68963;52.138;5.446;2024-03-08T04:38:51;32.00;;;12.00;;
78561;SDS011;68963;52.138;5.446;2024-03-08T04:41:18;31.65;;;11.70;;
78561;SDS011;68963;52.138;5.446;2024-03-08T04:43:46;34.53;;;12.30;;
78561;SDS011;68963;52.138;5.446;2024-03-08T04:46:13;30.92;;;11.93;;
78561;SDS011;68963;52.138;5.446;2024-03-08T04:48:40;30.40;;;10.98;;
78561;SDS011;68963;52.138;5.446;2024-03-08T04:51:09;29.70;;;11.82;;
78561;SDS011;68963;52.138;5.446;2024-03-08T04:53:41;34.55;;;11.82;;
78561;SDS011;68963;52.138;5.446;2024-03-08T04:56:08;30.52;;;12.93;;
78561;SDS011;68963;52.138;5.446;2024-03-08T04:58:45;29.52;;;11.45;;
78561;SDS011;68963;52.138;5.446;2024-03-08T05:01:16;30.20;;;10.52;;
78561;SDS011;68963;52.138;5.446;2024-03-08T05:03:46;33.83;;;12.35;;
78561;SDS011;68963;52.138;5.446;2024-03-08T05:06:14;29.63;;;10.65;;
78561;SDS011;68963;52.138;5.446;2024-03-08T05:08:42;29.38;;;11.60;;
78561;SDS011;68963;52.138;5.446;2024-03-08T05:11:09;32.97;;;12.75;;
78561;SDS011;68963;52.138;5.446;2024-03-08T05:13:36;30.45;;;11.98;;
78561;SDS011;68963;52.138;5.446;2024-03-08T05:16:04;30.88;;;11.43;;
78561;SDS011;68963;52.138;5.446;2024-03-08T05:18:31;34.08;;;11.88;;
78561;SDS011;68963;52.138;5.446;2024-03-08T05:20:59;34.03;;;12.25;;
78561;SDS011;68963;52.138;5.446;2024-03-08T05:23:26;33.42;;;11.75;;
78561;SDS011;68963;52.138;5.446;2024-03-08T05:25:53;31.13;;;11.57;;
78561;SDS011;68963;52.138;5.446;2024-03-08T05:28:23;31.55;;;11.80;;
78561;SDS011;68963;52.138;5.446;2024-03-08T05:31:17;28.75;;;11.55;;
78561;SDS011;68963;52.138;5.446;2024-03-08T05:34:06;25.83;;;10.35;;
78561;SDS011;68963;52.138;5.446;2024-03-08T05:36:39;28.58;;;11.48;;
78561;SDS011;68963;52.138;5.446;2024-03-08T05:39:05;29.40;;;11.30;;
78561;SDS011;68963;52.138;5.446;2024-03-08T05:41:33;32.28;;;11.27;;
78561;SDS011;68963;52.138;5.446;2024-03-08T05:44:00;30.33;;;11.98;;
78561;SDS011;68963;52.138;5.446;2024-03-08T05:46:27;27.15;;;11.15;;
78561;SDS011;68963;52.138;5.446;2024-03-08T05:48:54;30.08;;;11.60;;
78561;SDS011;68963;52.138;5.446;2024-03-08T05:51:23;32.45;;;11.52;;
78561;SDS011;68963;52.138;5.446;2024-03-08T05:53:51;26.50;;;10.88;;
78561;SDS011;68963;52.138;5.446;2024-03-08T05:56:19;31.58;;;12.35;;
78561;SDS011;68963;52.138;5.446;2024-03-08T05:58:46;34.65;;;11.50;;
78561;SDS011;68963;52.138;5.446;2024-03-08T06:01:14;32.58;;;11.93;;
78561;SDS011;68963;52.138;5.446;2024-03-08T06:03:43;32.30;;;11.88;;
78561;SDS011;68963;52.138;5.446;2024-03-08T06:06:12;34.95;;;12.07;;
78561;SDS011;68963;52.138;5.446;2024-03-08T06:08:39;32.95;;;10.95;;
78561;SDS011;68963;52.138;5.446;2024-03-08T06:11:06;31.67;;;11.13;;
78561;SDS011;68963;52.138;5.446;2024-03-08T06:13:33;33.38;;;12.02;;
78561;SDS011;68963;52.138;5.446;2024-03-08T06:16:07;35.17;;;12.63;;
78561;SDS011;68963;52.138;5.446;2024-03-08T06:18:38;30.63;;;11.25;;
78561;SDS011;68963;52.138;5.446;2024-03-08T06:21:06;30.63;;;12.45;;
78561;SDS011;68963;52.138;5.446;2024-03-08T06:23:33;33.33;;;12.57;;
78561;SDS011;68963;52.138;5.446;2024-03-08T06:26:00;32.00;;;11.57;;
78561;SDS011;68963;52.138;5.446;2024-03-08T06:28:27;34.50;;;13.23;;
78561;SDS011;68963;52.138;5.446;2024-03-08T06:30:54;34.88;;;12.88;;
78561;SDS011;68963;52.138;5.446;2024-03-08T06:33:20;32.03;;;12.23;;
78561;SDS011;68963;52.138;5.446;2024-03-08T06:35:47;27.77;;;11.38;;
78561;SDS011;68963;52.138;5.446;2024-03-08T06:38:14;33.13;;;11.98;;
78561;SDS011;68963;52.138;5.446;2024-03-08T06:40:43;30.63;;;11.65;;
78561;SDS011;68963;52.138;5.446;2024-03-08T06:43:10;29.65;;;11.80;;
78561;SDS011;68963;52.138;5.446;2024-03-08T06:45:40;32.05;;;12.68;;
78561;SDS011;68963;52.138;5.446;2024-03-08T06:48:07;35.38;;;12.60;;
78561;SDS011;68963;52.138;5.446;2024-03-08T06:50:36;28.45;;;10.10;;
78561;SDS011;68963;52.138;5.446;2024-03-08T06:53:03;34.28;;;12.13;;
78561;SDS011;68963;52.138;5.446;2024-03-08T06:55:29;31.90;;;12.60;;
78561;SDS011;68963;52.138;5.446;2024-03-08T06:57:56;30.45;;;12.05;;
78561;SDS011;68963;52.138;5.446;2024-03-08T07:00:24;32.35;;;13.18;;
78561;SDS011;68963;52.138;5.446;2024-03-08T07:02:53;36.15;;;13.38;;
78561;SDS011;68963;52.138;5.446;2024-03-08T07:05:20;34.55;;;12.18;;
78561;SDS011;68963;52.138;5.446;2024-03-08T07:07:46;34.53;;;13.63;;
78561;SDS011;68963;52.138;5.446;2024-03-08T07:12:43;25.58;;;10.13;;
78561;SDS011;68963;52.138;5.446;2024-03-08T07:15:09;31.95;;;11.68;;
78561;SDS011;68963;52.138;5.446;2024-03-08T07:17:40;31.33;;;11.77;;
78561;SDS011;68963;52.138;5.446;2024-03-08T07:20:11;28.27;;;11.65;;
78561;SDS011;68963;52.138;5.446;2024-03-08T07:22:39;35.45;;;13.20;;
78561;SDS011;68963;52.138;5.446;2024-03-08T07:25:06;32.08;;;12.55;;
78561;SDS011;68963;52.138;5.446;2024-03-08T07:27:36;28.60;;;11.30;;
78561;SDS011;68963;52.138;5.446;2024-03-08T07:30:02;34.65;;;12.68;;
78561;SDS011;68963;52.138;5.446;2024-03-08T07:32:32;33.97;;;12.82;;
78561;SDS011;68963;52.138;5.446;2024-03-08T07:35:01;33.83;;;13.82;;
78561;SDS011;68963;52.138;5.446;2024-03-08T07:37:28;29.70;;;12.18;;
78561;SDS011;68963;52.138;5.446;2024-03-08T07:39:54;33.80;;;13.40;;
78561;SDS011;68963;52.138;5.446;2024-03-08T07:42:21;38.85;;;14.48;;
78561;SDS011;68963;52.138;5.446;2024-03-08T07:44:49;32.55;;;14.07;;
78561;SDS011;68963;52.138;5.446;2024-03-08T07:47:16;35.50;;;13.63;;
78561;SDS011;68963;52.138;5.446;2024-03-08T07:49:47;34.35;;;13.73;;
78561;SDS011;68963;52.138;5.446;2024-03-08T07:52:14;34.55;;;13.45;;
78561;SDS011;68963;52.138;5.446;2024-03-08T07:54:41;34.13;;;13.68;;
78561;SDS011;68963;52.138;5.446;2024-03-08T07:57:08;39.30;;;14.50;;
78561;SDS011;68963;52.138;5.446;2024-03-08T07:59:35;34.30;;;13.68;;
78561;SDS011;68963;52.138;5.446;2024-03-08T08:02:01;33.55;;;13.23;;
78561;SDS011;68963;52.138;5.446;2024-03-08T08:04:28;39.45;;;15.77;;
78561;SDS011;68963;52.138;5.446;2024-03-08T08:06:54;35.08;;;13.70;;
78561;SDS011;68963;52.138;5.446;2024-03-08T08:09:21;37.25;;;13.60;;
78561;SDS011;68963;52.138;5.446;2024-03-08T08:12:01;35.72;;;13.45;;
78561;SDS011;68963;52.138;5.446;2024-03-08T08:14:30;38.35;;;15.52;;
78561;SDS011;68963;52.138;5.446;2024-03-08T08:16:59;33.47;;;13.20;;
78561;SDS011;68963;52.138;5.446;2024-03-08T08:19:30;36.80;;;14.77;;
78561;SDS011;68963;52.138;5.446;2024-03-08T08:21:58;43.15;;;16.27;;
78561;SDS011;68963;52.138;5.446;2024-03-08T08:24:24;35.65;;;14.65;;
78561;SDS011;68963;52.138;5.446;2024-03-08T08:26:52;37.55;;;14.70;;
78561;SDS011;68963;52.138;5.446;2024-03-08T08:29:18;32.88;;;13.60;;
78561;SDS011;68963;52.138;5.446;2024-03-08T08:31:46;40.70;;;16.20;;
78561;SDS011;68963;52.138;5.446;2024-03-08T08:34:13;37.03;;;15.43;;
78561;SDS011;68963;52.138;5.446;2024-03-08T08:36:40;36.97;;;15.45;;
78561;SDS011;68963;52.138;5.446;2024-03-08T08:39:06;37.92;;;14.80;;
78561;SDS011;68963;52.138;5.446;2024-03-08T08:41:40;37.78;;;16.15;;
78561;SDS011;68963;52.138;5.446;2024-03-08T08:44:07;38.60;;;14.77;;
78561;SDS011;68963;52.138;5.446;2024-03-08T08:46:42;34.70;;;14.60;;
78561;SDS011;68963;52.138;5.446;2024-03-08T08:49:08;40.28;;;14.60;;
78561;SDS011;68963;52.138;5.446;2024-03-08T08:51:41;37.90;;;15.90;;
78561;SDS011;68963;52.138;5.446;2024-03-08T08:54:07;38.65;;;16.38;;
78561;SDS011;68963;52.138;5.446;2024-03-08T08:56:37;36.88;;;15.23;;
78561;SDS011;68963;52.138;5.446;2024-03-08T08:59:03;38.47;;;15.60;;
78561;SDS011;68963;52.138;5.446;2024-03-08T09:01:31;39.25;;;15.90;;
78561;SDS011;68963;52.138;5.446;2024-03-08T09:03:57;35.58;;;14.57;;
78561;SDS011;68963;52.138;5.446;2024-03-08T09:06:24;36.70;;;14.52;;
78561;SDS011;68963;52.138;5.446;2024-03-08T09:08:52;33.97;;;14.25;;
78561;SDS011;68963;52.138;5.446;2024-03-08T09:11:19;36.30;;;16.08;;
78561;SDS011;68963;52.138;5.446;2024-03-08T09:13:46;36.85;;;14.77;;
78561;SDS011;68963;52.138;5.446;2024-03-08T09:16:13;37.30;;;14.70;;
78561;SDS011;68963;52.138;5.446;2024-03-08T09:18:40;35.83;;;14.90;;
78561;SDS011;68963;52.138;5.446;2024-03-08T09:21:07;37.00;;;14.90;;
78561;SDS011;68963;52.138;5.446;2024-03-08T09:23:36;36.28;;;15.43;;
78561;SDS011;68963;52.138;5.446;2024-03-08T09:26:03;38.92;;;15.02;;
78561;SDS011;68963;52.138;5.446;2024-03-08T09:28:35;40.95;;;15.95;;
78561;SDS011;68963;52.138;5.446;2024-03-08T09:31:02;36.63;;;15.88;;
78561;SDS011;68963;52.138;5.446;2024-03-08T09:33:29;32.35;;;14.32;;
78561;SDS011;68963;52.138;5.446;2024-03-08T09:35:56;38.83;;;16.45;;
78561;SDS011;68963;52.138;5.446;2024-03-08T09:38:29;36.55;;;15.10;;
78561;SDS011;68963;52.138;5.446;2024-03-08T09:40:55;37.58;;;16.15;;
78561;SDS011;68963;52.138;5.446;2024-03-08T09:43:23;35.80;;;15.80;;
78561;SDS011;68963;52.138;5.446;2024-03-08T09:45:50;34.90;;;15.68;;
78561;SDS011;68963;52.138;5.446;2024-03-08T09:48:17;36.38;;;15.68;;
78561;SDS011;68963;52.138;5.446;2024-03-08T09:50:45;37.55;;;16.02;;
78561;SDS011;68963;52.138;5.446;2024-03-08T09:53:12;35.85;;;15.68;;
78561;SDS011;68963;52.138;5.446;2024-03-08T09:55:39;37.40;;;15.82;;
78561;SDS011;68963;52.138;5.446;2024-03-08T09:58:09;35.35;;;15.48;;
78561;SDS011;68963;52.138;5.446;2024-03-08T10:00:56;34.22;;;15.05;;
78561;SDS011;68963;52.138;5.446;2024-03-08T10:03:28;36.47;;;15.57;;
78561;SDS011;68963;52.138;5.446;2024-03-08T10:05:56;36.03;;;15.75;;
78561;SDS011;68963;52.138;5.446;2024-03-08T10:08:29;33.40;;;14.75;;
78561;SDS011;68963;52.138;5.446;2024-03-08T10:10:56;35.80;;;14.65;;
78561;SDS011;68963;52.138;5.446;2024-03-08T10:13:26;36.97;;;15.13;;
78561;SDS011;68963;52.138;5.446;2024-03-08T10:15:54;35.58;;;15.95;;
78561;SDS011;68963;52.138;5.446;2024-03-08T10:18:21;34.25;;;15.25;;
78561;SDS011;68963;52.138;5.446;2024-03-08T10:21:02;36.13;;;16.17;;
78561;SDS011;68963;52.138;5.446;2024-03-08T10:23:33;33.92;;;14.85;;
78561;SDS011;68963;52.138;5.446;2024-03-08T10:28:45;33.50;;;14.43;;
78561;SDS011;68963;52.138;5.446;2024-03-08T10:31:14;33.00;;;14.68;;
78561;SDS011;68963;52.138;5.446;2024-03-08T10:33:45;32.83;;;15.23;;
78561;SDS011;68963;52.138;5.446;2024-03-08T10:36:13;36.55;;;14.55;;
78561;SDS011;68963;52.138;5.446;2024-03-08T10:38:41;34.25;;;15.80;;
78561;SDS011;68963;52.138;5.446;2024-03-08T10:41:15;34.60;;;14.95;;
78561;SDS011;68963;52.138;5.446;2024-03-08T10:43:58;34.42;;;14.73;;
78561;SDS011;68963;52.138;5.446;2024-03-08T10:49:25;31.55;;;14.32;;
78561;SDS011;68963;52.138;5.446;2024-03-08T10:51:56;33.88;;;14.80;;
78561;SDS011;68963;52.138;5.446;2024-03-08T10:54:25;32.55;;;15.15;;
78561;SDS011;68963;52.138;5.446;2024-03-08T10:56:52;31.60;;;15.13;;
78561;SDS011;68963;52.138;5.446;2024-03-08T10:59:21;32.15;;;14.77;;
78561;SDS011;68963;52.138;5.446;2024-03-08T11:01:48;32.00;;;14.48;;
78561;SDS011;68963;52.138;5.446;2024-03-08T11:04:15;34.40;;;15.65;;
78561;SDS011;68963;52.138;5.446;2024-03-08T11:06:46;31.98;;;15.25;;
78561;SDS011;68963;52.138;5.446;2024-03-08T11:14:45;32.47;;;14.07;;
78561;SDS011;68963;52.138;5.446;2024-03-08T11:17:15;31.67;;;15.43;;
78561;SDS011;68963;52.138;5.446;2024-03-08T11:19:47;28.50;;;12.88;;
78561;SDS011;68963;52.138;5.446;2024-03-08T11:22:22;32.50;;;14.35;;
78561;SDS011;68963;52.138;5.446;2024-03-08T11:24:53;30.98;;;14.60;;
78561;SDS011;68963;52.138;5.446;2024-03-08T11:27:43;28.98;;;13.77;;
78561;SDS011;68963;52.138;5.446;2024-03-08T11:30:32;29.05;;;13.82;;
78561;SDS011;68963;52.138;5.446;2024-03-08T11:33:00;27.42;;;13.75;;
78561;SDS011;68963;52.138;5.446;2024-03-08T11:35:29;29.08;;;13.30;;
78561;SDS011;68963;52.138;5.446;2024-03-08T11:37:59;29.08;;;13.48;;
78561;SDS011;68963;52.138;5.446;2024-03-08T11:40:28;27.33;;;13.88;;
78561;SDS011;68963;52.138;5.446;2024-03-08T11:42:55;29.25;;;13.77;;
78561;SDS011;68963;52.138;5.446;2024-03-08T11:45:22;25.27;;;12.32;;
78561;SDS011;68963;52.138;5.446;2024-03-08T11:47:48;31.83;;;13.82;;
78561;SDS011;68963;52.138;5.446;2024-03-08T11:50:17;31.92;;;13.27;;
78561;SDS011;68963;52.138;5.446;2024-03-08T11:52:47;26.17;;;13.63;;
78561;SDS011;68963;52.138;5.446;2024-03-08T11:55:14;25.25;;;12.82;;
78561;SDS011;68963;52.138;5.446;2024-03-08T11:57:41;25.70;;;12.70;;
78561;SDS011;68963;52.138;5.446;2024-03-08T12:00:15;26.60;;;13.30;;
78561;SDS011;68963;52.138;5.446;2024-03-08T12:03:02;28.08;;;14.13;;
78561;SDS011;68963;52.138;5.446;2024-03-08T12:05:31;25.88;;;12.57;;
78561;SDS011;68963;52.138;5.446;2024-03-08T12:08:00;25.35;;;12.57;;
78561;SDS011;68963;52.138;5.446;2024-03-08T12:10:28;26.75;;;13.38;;
78561;SDS011;68963;52.138;5.446;2024-03-08T12:12:56;26.63;;;13.32;;
78561;SDS011;68963;52.138;5.446;2024-03-08T12:15:26;26.27;;;12.82;;
78561;SDS011;68963;52.138;5.446;2024-03-08T12:17:54;26.63;;;13.88;;
78561;SDS011;68963;52.138;5.446;2024-03-08T12:22:50;25.70;;;11.68;;
78561;SDS011;68963;52.138;5.446;2024-03-08T12:25:19;23.55;;;10.90;;
78561;SDS011;68963;52.138;5.446;2024-03-08T12:27:46;26.67;;;13.63;;
78561;SDS011;68963;52.138;5.446;2024-03-08T12:30:17;26.77;;;13.48;;
78561;SDS011;68963;52.138;5.446;2024-03-08T12:32:48;25.02;;;12.80;;
78561;SDS011;68963;52.138;5.446;2024-03-08T12:35:20;24.02;;;12.93;;
78561;SDS011;68963;52.138;5.446;2024-03-08T12:37:49;23.67;;;12.32;;
78561;SDS011;68963;52.138;5.446;2024-03-08T12:40:17;24.85;;;13.13;;
78561;SDS011;68963;52.138;5.446;2024-03-08T12:42:45;25.15;;;13.07;;
78561;SDS011;68963;52.138;5.446;2024-03-08T12:45:14;23.00;;;12.60;;
78561;SDS011;68963;52.138;5.446;2024-03-08T12:47:40;24.08;;;13.25;;
78561;SDS011;68963;52.138;5.446;2024-03-08T12:50:09;23.75;;;12.35;;
78561;SDS011;68963;52.138;5.446;2024-03-08T12:52:36;24.33;;;12.65;;
78561;SDS011;68963;52.138;5.446;2024-03-08T12:55:03;25.25;;;13.98;;
78561;SDS011;68963;52.138;5.446;2024-03-08T12:57:33;27.42;;;12.90;;
78561;SDS011;68963;52.138;5.446;2024-03-08T13:00:01;25.27;;;13.55;;
78561;SDS011;68963;52.138;5.446;2024-03-08T13:02:30;26.25;;;13.98;;
78561;SDS011;68963;52.138;5.446;2024-03-08T13:05:00;26.25;;;13.80;;
78561;SDS011;68963;52.138;5.446;2024-03-08T13:07:27;26.20;;;13.23;;
78561;SDS011;68963;52.138;5.446;2024-03-08T13:09:54;25.42;;;13.40;;
78561;SDS011;68963;52.138;5.446;2024-03-08T13:12:21;26.63;;;13.65;;
78561;SDS011;68963;52.138;5.446;2024-03-08T13:14:49;27.27;;;13.43;;
78561;SDS011;68963;52.138;5.446;2024-03-08T13:17:16;25.67;;;13.43;;
78561;SDS011;68963;52.138;5.446;2024-03-08T13:19:44;25.92;;;14.23;;
78561;SDS011;68963;52.138;5.446;2024-03-08T13:22:11;25.95;;;13.50;;
78561;SDS011;68963;52.138;5.446;2024-03-08T13:24:42;28.98;;;15.15;;
78561;SDS011;68963;52.138;5.446;2024-03-08T13:27:11;25.20;;;13.38;;
78561;SDS011;68963;52.138;5.446;2024-03-08T13:29:48;27.10;;;13.13;;
78561;SDS011;68963;52.138;5.446;2024-03-08T13:32:15;25.52;;;13.25;;
78561;SDS011;68963;52.138;5.446;2024-03-08T13:34:43;25.88;;;13.18;;
78561;SDS011;68963;52.138;5.446;2024-03-08T13:37:11;25.50;;;13.60;;
78561;SDS011;68963;52.138;5.446;2024-03-08T13:39:38;26.65;;;13.10;;
78561;SDS011;68963;52.138;5.446;2024-03-08T13:42:07;25.08;;;13.30;;
78561;SDS011;68963;52.138;5.446;2024-03-08T13:44:36;27.92;;;13.88;;
78561;SDS011;68963;52.138;5.446;2024-03-08T13:47:03;26.20;;;12.85;;
78561;SDS011;68963;52.138;5.446;2024-03-08T13:49:31;23.77;;;12.07;;
78561;SDS011;68963;52.138;5.446;2024-03-08T13:51:58;23.92;;;12.70;;
78561;SDS011;68963;52.138;5.446;2024-03-08T13:54:27;25.75;;;13.40;;
78561;SDS011;68963;52.138;5.446;2024-03-08T13:56:59;27.00;;;13.55;;
78561;SDS011;68963;52.138;5.446;2024-03-08T13:59:26;25.38;;;13.27;;
78561;SDS011;68963;52.138;5.446;2024-03-08T14:01:59;26.20;;;14.23;;
78561;SDS011;68963;52.138;5.446;2024-03-08T14:04:28;25.10;;;12.90;;
78561;SDS011;68963;52.138;5.446;2024-03-08T14:06:55;26.30;;;14.25;;
78561;SDS011;68963;52.138;5.446;2024-03-08T14:09:27;27.02;;;13.48;;
78561;SDS011;68963;52.138;5.446;2024-03-08T14:11:55;25.13;;;12.88;;
78561;SDS011;68963;52.138;5.446;2024-03-08T14:14:22;25.85;;;13.35;;
78561;SDS011;68963;52.138;5.446;2024-03-08T14:16:51;25.77;;;13.52;;
78561;SDS011;68963;52.138;5.446;2024-03-08T14:19:24;27.20;;;13.90;;
78561;SDS011;68963;52.138;5.446;2024-03-08T14:21:50;26.73;;;13.88;;
78561;SDS011;68963;52.138;5.446;2024-03-08T14:24:19;26.88;;;14.25;;
78561;SDS011;68963;52.138;5.446;2024-03-08T14:26:46;23.65;;;12.68;;
78561;SDS011;68963;52.138;5.446;2024-03-08T14:29:15;27.42;;;14.55;;
78561;SDS011;68963;52.138;5.446;2024-03-08T14:31:41;26.27;;;13.90;;
78561;SDS011;68963;52.138;5.446;2024-03-08T14:34:09;27.33;;;13.98;;
78561;SDS011;68963;52.138;5.446;2024-03-08T14:36:36;28.00;;;13.82;;
78561;SDS011;68963;52.138;5.446;2024-03-08T14:39:04;26.65;;;14.38;;
78561;SDS011;68963;52.138;5.446;2024-03-08T14:41:30;23.73;;;12.82;;
78561;SDS011;68963;52.138;5.446;2024-03-08T14:43:57;26.95;;;14.02;;
78561;SDS011;68963;52.138;5.446;2024-03-08T14:46:24;27.02;;;13.70;;
78561;SDS011;68963;52.138;5.446;2024-03-08T14:48:50;25.55;;;13.48;;
78561;SDS011;68963;52.138;5.446;2024-03-08T14:51:20;25.27;;;13.13;;
78561;SDS011;68963;52.138;5.446;2024-03-08T14:53:52;26.35;;;13.80;;
78561;SDS011;68963;52.138;5.446;2024-03-08T14:56:21;27.90;;;14.13;;
78561;SDS011;68963;52.138;5.446;2024-03-08T14:58:49;25.73;;;13.60;;
78561;SDS011;68963;52.138;5.446;2024-03-08T15:01:15;26.90;;;13.25;;
78561;SDS011;68963;52.138;5.446;2024-03-08T15:03:42;26.63;;;13.45;;